sensor_id;sensor_type;location;lat;lon;timestamp;temperature;humidity
7598;DHT22;3840;59.32098800;18.06423600;2023-02-19T00:00:00;-0.10;99.90
7598;DHT22;3840;59.32098800;18.06423600;2023-02-19T00:02:26;-0.20;99.90
7598;DHT22;3840;59.32098800;18.06423600;2023-02-19T00:04:52;-0.20;99.90
7598;DHT22;3840;59.32098800;18.06423600;2023-02-19T00:07:19;-0.20;99.90
7598;DHT22;3840;59.32098800;18.06423600;2023-02-19T00:09:45;-0.20;99.90
7598;DHT22;3840;59.32098800;18.06423600;2023-02-19T00:12:10;-0.20;99.90
7598;DHT22;3840;59.32098800;18.06423600;2023-02-19T00:14:36;-0.20;99.90
7598;DHT22;3840;59.32098800;18.06423600;2023-02-19T00:17:02;-0.20;99.90
7598;DHT22;3840;59.32098800;18.06423600;2023-02-19T00:19:27;-0.20;99.90
7598;DHT22;3840;59.32098800;18.06423600;2023-02-19T00:21:53;-0.20;99.90
7598;DHT22;3840;59.32098800;18.06423600;2023-02-19T00:24:20;-0.30;99.90
7598;DHT22;3840;59.32098800;18.06423600;2023-02-19T00:26:46;-0.30;99.90
7598;DHT22;3840;59.32098800;18.06423600;2023-02-19T00:29:14;-0.30;99.90
7598;DHT22;3840;59.32098800;18.06423600;2023-02-19T00:31:41;-0.30;99.90
7598;DHT22;3840;59.32098800;18.06423600;2023-02-19T00:34:09;-0.30;99.90
7598;DHT22;3840;59.32098800;18.06423600;2023-02-19T00:36:37;-0.30;99.90
7598;DHT22;3840;59.32098800;18.06423600;2023-02-19T00:39:04;-0.40;99.90
7598;DHT22;3840;59.32098800;18.06423600;2023-02-19T00:41:30;-0.40;99.90
7598;DHT22;3840;59.32098800;18.06423600;2023-02-19T00:43:57;-0.40;99.90
7598;DHT22;3840;59.32098800;18.06423600;2023-02-19T00:46:26;-0.30;99.90
7598;DHT22;3840;59.32098800;18.06423600;2023-02-19T00:48:52;-0.40;99.90
7598;DHT22;3840;59.32098800;18.06423600;2023-02-19T00:51:19;-0.40;99.90
7598;DHT22;3840;59.32098800;18.06423600;2023-02-19T00:53:45;-0.40;99.90
7598;DHT22;3840;59.32098800;18.06423600;2023-02-19T00:56:11;-0.40;99.90
7598;DHT22;3840;59.32098800;18.06423600;2023-02-19T00:58:37;-0.40;99.90
7598;DHT22;3840;59.32098800;18.06423600;2023-02-19T01:01:03;-0.40;99.90
7598;DHT22;3840;59.32098800;18.06423600;2023-02-19T01:03:31;-0.40;99.90
7598;DHT22;3840;59.32098800;18.06423600;2023-02-19T01:05:57;-0.40;99.90
7598;DHT22;3840;59.32098800;18.06423600;2023-02-19T01:08:23;-0.40;99.90
7598;DHT22;3840;59.32098800;18.06423600;2023-02-19T01:10:48;-0.50;99.90
7598;DHT22;3840;59.32098800;18.06423600;2023-02-19T01:13:14;-0.50;99.90
7598;DHT22;3840;59.32098800;18.06423600;2023-02-19T01:15:40;-0.50;99.90
7598;DHT22;3840;59.32098800;18.06423600;2023-02-19T01:18:06;-0.50;99.90
7598;DHT22;3840;59.32098800;18.06423600;2023-02-19T01:20:32;-0.60;99.90
7598;DHT22;3840;59.32098800;18.06423600;2023-02-19T01:22:57;-0.50;99.90
7598;DHT22;3840;59.32098800;18.06423600;2023-02-19T01:25:23;-0.50;99.90
7598;DHT22;3840;59.32098800;18.06423600;2023-02-19T01:27:49;-0.60;99.90
7598;DHT22;3840;59.32098800;18.06423600;2023-02-19T01:30:15;-0.60;99.90
7598;DHT22;3840;59.32098800;18.06423600;2023-02-19T01:32:40;-0.60;99.90
7598;DHT22;3840;59.32098800;18.06423600;2023-02-19T01:35:06;-0.60;99.90
7598;DHT22;3840;59.32098800;18.06423600;2023-02-19T01:37:32;-0.60;99.90
7598;DHT22;3840;59.32098800;18.06423600;2023-02-19T01:39:58;-0.60;99.90
7598;DHT22;3840;59.32098800;18.06423600;2023-02-19T01:42:23;-0.60;99.90
7598;DHT22;3840;59.32098800;18.06423600;2023-02-19T01:47:40;-0.70;99.90
7598;DHT22;3840;59.32098800;18.06423600;2023-02-19T01:50:06;-0.70;99.90
7598;DHT22;3840;59.32098800;18.06423600;2023-02-19T01:52:35;-0.70;99.90
7598;DHT22;3840;59.32098800;18.06423600;2023-02-19T01:55:04;-0.70;99.90
7598;DHT22;3840;59.32098800;18.06423600;2023-02-19T01:57:38;-0.70;99.90
7598;DHT22;3840;59.32098800;18.06423600;2023-02-19T02:00:11;-0.70;99.90
7598;DHT22;3840;59.32098800;18.06423600;2023-02-19T02:02:38;-0.70;99.90
7598;DHT22;3840;59.32098800;18.06423600;2023-02-19T02:05:10;-0.60;99.90
7598;DHT22;3840;59.32098800;18.06423600;2023-02-19T02:07:39;-0.70;99.90
7598;DHT22;3840;59.32098800;18.06423600;2023-02-19T02:10:23;-0.70;99.90
7598;DHT22;3840;59.32098800;18.06423600;2023-02-19T02:12:51;-0.70;99.90
7598;DHT22;3840;59.32098800;18.06423600;2023-02-19T02:15:18;-0.70;99.90
7598;DHT22;3840;59.32098800;18.06423600;2023-02-19T02:18:01;-0.70;99.90
7598;DHT22;3840;59.32098800;18.06423600;2023-02-19T02:31:58;-0.70;99.90
7598;DHT22;3840;59.32098800;18.06423600;2023-02-19T02:34:40;-0.70;99.90
7598;DHT22;3840;59.32098800;18.06423600;2023-02-19T02:37:10;-0.80;99.90
7598;DHT22;3840;59.32098800;18.06423600;2023-02-19T02:39:37;-0.80;99.90
7598;DHT22;3840;59.32098800;18.06423600;2023-02-19T02:42:03;-0.80;99.90
7598;DHT22;3840;59.32098800;18.06423600;2023-02-19T02:44:47;-0.80;99.90
7598;DHT22;3840;59.32098800;18.06423600;2023-02-19T02:47:36;-0.80;99.90
7598;DHT22;3840;59.32098800;18.06423600;2023-02-19T02:50:14;-0.80;99.90
7598;DHT22;3840;59.32098800;18.06423600;2023-02-19T02:52:44;-0.80;99.90
7598;DHT22;3840;59.32098800;18.06423600;2023-02-19T02:55:31;-0.80;99.90
7598;DHT22;3840;59.32098800;18.06423600;2023-02-19T02:57:59;-0.80;99.90
7598;DHT22;3840;59.32098800;18.06423600;2023-02-19T03:00:27;-0.80;99.90
7598;DHT22;3840;59.32098800;18.06423600;2023-02-19T03:03:14;-0.80;99.90
7598;DHT22;3840;59.32098800;18.06423600;2023-02-19T03:05:42;-0.80;99.90
7598;DHT22;3840;59.32098800;18.06423600;2023-02-19T03:08:30;-0.80;99.90
7598;DHT22;3840;59.32098800;18.06423600;2023-02-19T03:13:46;-0.80;99.90
7598;DHT22;3840;59.32098800;18.06423600;2023-02-19T03:16:32;-0.80;99.90
7598;DHT22;3840;59.32098800;18.06423600;2023-02-19T03:19:19;-0.90;99.90
7598;DHT22;3840;59.32098800;18.06423600;2023-02-19T03:22:00;-0.80;99.90
7598;DHT22;3840;59.32098800;18.06423600;2023-02-19T03:24:36;-0.80;99.90
7598;DHT22;3840;59.32098800;18.06423600;2023-02-19T03:27:25;-0.80;99.90
7598;DHT22;3840;59.32098800;18.06423600;2023-02-19T03:29:53;-0.80;99.90
7598;DHT22;3840;59.32098800;18.06423600;2023-02-19T03:35:16;-0.80;99.90
7598;DHT22;3840;59.32098800;18.06423600;2023-02-19T03:40:21;-0.80;99.90
7598;DHT22;3840;59.32098800;18.06423600;2023-02-19T03:43:02;-0.80;99.90
7598;DHT22;3840;59.32098800;18.06423600;2023-02-19T03:45:41;-0.80;99.90
7598;DHT22;3840;59.32098800;18.06423600;2023-02-19T03:58:57;-0.70;99.90
7598;DHT22;3840;59.32098800;18.06423600;2023-02-19T04:01:45;-0.70;99.90
7598;DHT22;3840;59.32098800;18.06423600;2023-02-19T04:06:41;-0.70;99.90
7598;DHT22;3840;59.32098800;18.06423600;2023-02-19T04:09:12;-0.60;99.90
7598;DHT22;3840;59.32098800;18.06423600;2023-02-19T04:11:39;-0.60;99.90
7598;DHT22;3840;59.32098800;18.06423600;2023-02-19T04:14:14;-0.60;99.90
7598;DHT22;3840;59.32098800;18.06423600;2023-02-19T04:16:52;-0.60;99.90
7598;DHT22;3840;59.32098800;18.06423600;2023-02-19T04:19:21;-0.60;99.90
7598;DHT22;3840;59.32098800;18.06423600;2023-02-19T04:21:50;-0.60;99.90
7598;DHT22;3840;59.32098800;18.06423600;2023-02-19T04:24:26;-0.60;99.90
7598;DHT22;3840;59.32098800;18.06423600;2023-02-19T04:26:53;-0.60;99.90
7598;DHT22;3840;59.32098800;18.06423600;2023-02-19T04:29:19;-0.60;99.90
7598;DHT22;3840;59.32098800;18.06423600;2023-02-19T04:31:45;-0.60;99.90
7598;DHT22;3840;59.32098800;18.06423600;2023-02-19T04:34:10;-0.60;99.90
7598;DHT22;3840;59.32098800;18.06423600;2023-02-19T04:36:36;-0.60;99.90
7598;DHT22;3840;59.32098800;18.06423600;2023-02-19T04:39:02;-0.60;99.90
7598;DHT22;3840;59.32098800;18.06423600;2023-02-19T04:41:28;-0.60;99.90
7598;DHT22;3840;59.32098800;18.06423600;2023-02-19T04:43:55;-0.60;99.90
7598;DHT22;3840;59.32098800;18.06423600;2023-02-19T04:46:21;-0.50;99.90
7598;DHT22;3840;59.32098800;18.06423600;2023-02-19T04:48:46;-0.30;99.90
7598;DHT22;3840;59.32098800;18.06423600;2023-02-19T04:51:12;-0.50;99.90
7598;DHT22;3840;59.32098800;18.06423600;2023-02-19T04:53:38;-0.50;99.90
7598;DHT22;3840;59.32098800;18.06423600;2023-02-19T04:56:08;-0.50;99.90
7598;DHT22;3840;59.32098800;18.06423600;2023-02-19T04:58:35;-0.50;99.90
7598;DHT22;3840;59.32098800;18.06423600;2023-02-19T05:01:00;-0.50;99.90
7598;DHT22;3840;59.32098800;18.06423600;2023-02-19T05:03:26;-0.60;99.90
7598;DHT22;3840;59.32098800;18.06423600;2023-02-19T05:05:52;-0.60;99.90
7598;DHT22;3840;59.32098800;18.06423600;2023-02-19T05:08:17;-0.50;99.90
7598;DHT22;3840;59.32098800;18.06423600;2023-02-19T05:10:43;-0.70;99.90
7598;DHT22;3840;59.32098800;18.06423600;2023-02-19T05:13:09;-0.70;99.90
7598;DHT22;3840;59.32098800;18.06423600;2023-02-19T05:15:36;-0.70;99.90
7598;DHT22;3840;59.32098800;18.06423600;2023-02-19T05:18:01;-0.70;99.90
7598;DHT22;3840;59.32098800;18.06423600;2023-02-19T05:20:27;-0.80;99.90
7598;DHT22;3840;59.32098800;18.06423600;2023-02-19T05:22:53;-0.80;99.90
7598;DHT22;3840;59.32098800;18.06423600;2023-02-19T05:25:19;-0.80;99.90
7598;DHT22;3840;59.32098800;18.06423600;2023-02-19T05:27:44;-0.80;99.90
7598;DHT22;3840;59.32098800;18.06423600;2023-02-19T05:30:10;-0.80;99.90
7598;DHT22;3840;59.32098800;18.06423600;2023-02-19T05:32:36;-0.80;99.90
7598;DHT22;3840;59.32098800;18.06423600;2023-02-19T05:35:02;-0.80;99.90
7598;DHT22;3840;59.32098800;18.06423600;2023-02-19T05:37:28;-0.80;99.90
7598;DHT22;3840;59.32098800;18.06423600;2023-02-19T05:39:54;-0.80;99.90
7598;DHT22;3840;59.32098800;18.06423600;2023-02-19T05:42:20;-0.90;99.90
7598;DHT22;3840;59.32098800;18.06423600;2023-02-19T05:44:45;-0.80;99.90
7598;DHT22;3840;59.32098800;18.06423600;2023-02-19T05:47:11;-0.90;99.90
7598;DHT22;3840;59.32098800;18.06423600;2023-02-19T05:49:37;-0.90;99.90
7598;DHT22;3840;59.32098800;18.06423600;2023-02-19T05:52:03;-0.80;99.90
7598;DHT22;3840;59.32098800;18.06423600;2023-02-19T05:54:29;-0.90;99.90
7598;DHT22;3840;59.32098800;18.06423600;2023-02-19T05:56:55;-0.90;99.90
7598;DHT22;3840;59.32098800;18.06423600;2023-02-19T05:59:26;-0.90;99.90
7598;DHT22;3840;59.32098800;18.06423600;2023-02-19T06:01:53;-0.90;99.90
7598;DHT22;3840;59.32098800;18.06423600;2023-02-19T06:04:19;-1.00;99.90
7598;DHT22;3840;59.32098800;18.06423600;2023-02-19T06:06:46;-1.00;99.90
7598;DHT22;3840;59.32098800;18.06423600;2023-02-19T06:09:12;-0.90;99.90
7598;DHT22;3840;59.32098800;18.06423600;2023-02-19T06:11:39;-0.90;99.90
7598;DHT22;3840;59.32098800;18.06423600;2023-02-19T06:14:05;-1.00;99.90
7598;DHT22;3840;59.32098800;18.06423600;2023-02-19T06:16:31;-1.00;99.90
7598;DHT22;3840;59.32098800;18.06423600;2023-02-19T06:19:01;-1.00;99.90
7598;DHT22;3840;59.32098800;18.06423600;2023-02-19T06:21:27;-1.00;99.90
7598;DHT22;3840;59.32098800;18.06423600;2023-02-19T06:23:53;-1.00;99.90
7598;DHT22;3840;59.32098800;18.06423600;2023-02-19T06:26:21;-1.00;99.90
7598;DHT22;3840;59.32098800;18.06423600;2023-02-19T06:28:49;-1.00;99.90
7598;DHT22;3840;59.32098800;18.06423600;2023-02-19T06:31:16;-0.90;99.90
7598;DHT22;3840;59.32098800;18.06423600;2023-02-19T06:33:42;-1.00;99.90
7598;DHT22;3840;59.32098800;18.06423600;2023-02-19T06:36:13;-1.00;99.90
7598;DHT22;3840;59.32098800;18.06423600;2023-02-19T06:38:40;-1.00;99.90
7598;DHT22;3840;59.32098800;18.06423600;2023-02-19T06:41:07;-1.00;99.90
7598;DHT22;3840;59.32098800;18.06423600;2023-02-19T06:43:33;-1.00;99.90
7598;DHT22;3840;59.32098800;18.06423600;2023-02-19T06:46:00;-1.00;99.90
7598;DHT22;3840;59.32098800;18.06423600;2023-02-19T06:48:28;-0.90;99.90
7598;DHT22;3840;59.32098800;18.06423600;2023-02-19T06:50:54;-1.00;99.90
7598;DHT22;3840;59.32098800;18.06423600;2023-02-19T06:53:20;-1.10;99.90
7598;DHT22;3840;59.32098800;18.06423600;2023-02-19T06:56:07;-1.10;99.90
7598;DHT22;3840;59.32098800;18.06423600;2023-02-19T06:58:46;-1.00;99.90
7598;DHT22;3840;59.32098800;18.06423600;2023-02-19T07:01:11;-1.00;99.90
7598;DHT22;3840;59.32098800;18.06423600;2023-02-19T07:03:37;-1.00;99.90
7598;DHT22;3840;59.32098800;18.06423600;2023-02-19T07:06:03;-1.00;99.90
7598;DHT22;3840;59.32098800;18.06423600;2023-02-19T07:08:29;-1.00;99.90
7598;DHT22;3840;59.32098800;18.06423600;2023-02-19T07:10:56;-1.00;99.90
7598;DHT22;3840;59.32098800;18.06423600;2023-02-19T07:13:23;-1.00;99.90
7598;DHT22;3840;59.32098800;18.06423600;2023-02-19T07:15:51;-0.70;99.90
7598;DHT22;3840;59.32098800;18.06423600;2023-02-19T07:18:17;-1.00;99.90
7598;DHT22;3840;59.32098800;18.06423600;2023-02-19T07:20:42;-1.00;99.90
7598;DHT22;3840;59.32098800;18.06423600;2023-02-19T07:23:08;-1.00;99.90
7598;DHT22;3840;59.32098800;18.06423600;2023-02-19T07:25:34;-1.00;99.90
7598;DHT22;3840;59.32098800;18.06423600;2023-02-19T07:28:01;-0.90;99.90
7598;DHT22;3840;59.32098800;18.06423600;2023-02-19T07:30:27;-1.00;99.90
7598;DHT22;3840;59.32098800;18.06423600;2023-02-19T07:32:53;-0.90;99.90
7598;DHT22;3840;59.32098800;18.06423600;2023-02-19T07:35:18;-1.00;99.90
7598;DHT22;3840;59.32098800;18.06423600;2023-02-19T07:37:44;-0.90;99.90
7598;DHT22;3840;59.32098800;18.06423600;2023-02-19T07:40:10;-0.90;99.90
7598;DHT22;3840;59.32098800;18.06423600;2023-02-19T07:42:36;-1.00;99.90
7598;DHT22;3840;59.32098800;18.06423600;2023-02-19T07:45:02;-0.90;99.90
7598;DHT22;3840;59.32098800;18.06423600;2023-02-19T07:47:28;-0.90;99.90
7598;DHT22;3840;59.32098800;18.06423600;2023-02-19T07:49:54;-0.90;99.90
7598;DHT22;3840;59.32098800;18.06423600;2023-02-19T07:52:19;-0.80;99.90
7598;DHT22;3840;59.32098800;18.06423600;2023-02-19T07:54:46;-0.90;99.90
7598;DHT22;3840;59.32098800;18.06423600;2023-02-19T07:57:12;-0.90;99.90
7598;DHT22;3840;59.32098800;18.06423600;2023-02-19T07:59:39;-0.90;99.90
7598;DHT22;3840;59.32098800;18.06423600;2023-02-19T08:02:13;-0.90;99.90
7598;DHT22;3840;59.32098800;18.06423600;2023-02-19T08:04:58;-0.90;99.90
7598;DHT22;3840;59.32098800;18.06423600;2023-02-19T08:07:24;-0.60;99.90
7598;DHT22;3840;59.32098800;18.06423600;2023-02-19T08:09:50;-0.80;99.90
7598;DHT22;3840;59.32098800;18.06423600;2023-02-19T08:12:35;-0.80;99.90
7598;DHT22;3840;59.32098800;18.06423600;2023-02-19T08:15:20;-0.80;99.90
7598;DHT22;3840;59.32098800;18.06423600;2023-02-19T08:17:46;-0.80;99.90
7598;DHT22;3840;59.32098800;18.06423600;2023-02-19T08:20:12;-0.80;99.90
7598;DHT22;3840;59.32098800;18.06423600;2023-02-19T08:22:37;-0.70;99.90
7598;DHT22;3840;59.32098800;18.06423600;2023-02-19T08:25:03;-0.70;99.90
7598;DHT22;3840;59.32098800;18.06423600;2023-02-19T08:27:29;-0.70;99.90
7598;DHT22;3840;59.32098800;18.06423600;2023-02-19T08:29:54;-0.70;99.90
7598;DHT22;3840;59.32098800;18.06423600;2023-02-19T08:32:20;-0.60;99.90
7598;DHT22;3840;59.32098800;18.06423600;2023-02-19T08:34:46;-0.60;99.90
7598;DHT22;3840;59.32098800;18.06423600;2023-02-19T08:37:11;-0.60;99.90
7598;DHT22;3840;59.32098800;18.06423600;2023-02-19T08:39:37;-0.60;99.90
7598;DHT22;3840;59.32098800;18.06423600;2023-02-19T08:42:03;-0.70;99.90
7598;DHT22;3840;59.32098800;18.06423600;2023-02-19T08:44:28;-0.50;99.90
7598;DHT22;3840;59.32098800;18.06423600;2023-02-19T08:46:54;-0.50;99.90
7598;DHT22;3840;59.32098800;18.06423600;2023-02-19T08:49:20;-0.50;99.90
7598;DHT22;3840;59.32098800;18.06423600;2023-02-19T08:51:45;-0.50;99.90
7598;DHT22;3840;59.32098800;18.06423600;2023-02-19T08:54:11;-0.50;99.90
7598;DHT22;3840;59.32098800;18.06423600;2023-02-19T08:56:37;-0.40;99.90
7598;DHT22;3840;59.32098800;18.06423600;2023-02-19T08:59:02;-0.40;99.90
7598;DHT22;3840;59.32098800;18.06423600;2023-02-19T09:01:28;-0.30;99.90
7598;DHT22;3840;59.32098800;18.06423600;2023-02-19T09:03:54;-0.40;99.90
7598;DHT22;3840;59.32098800;18.06423600;2023-02-19T09:06:20;-0.30;99.90
7598;DHT22;3840;59.32098800;18.06423600;2023-02-19T09:08:46;-0.30;99.90
7598;DHT22;3840;59.32098800;18.06423600;2023-02-19T09:11:11;-0.30;99.90
7598;DHT22;3840;59.32098800;18.06423600;2023-02-19T09:13:37;-0.30;99.90
7598;DHT22;3840;59.32098800;18.06423600;2023-02-19T09:16:04;-0.30;99.90
7598;DHT22;3840;59.32098800;18.06423600;2023-02-19T09:18:29;-0.30;99.90
7598;DHT22;3840;59.32098800;18.06423600;2023-02-19T09:20:59;-0.30;99.90
7598;DHT22;3840;59.32098800;18.06423600;2023-02-19T09:23:25;-0.20;99.90
7598;DHT22;3840;59.32098800;18.06423600;2023-02-19T09:25:56;-0.20;99.90
7598;DHT22;3840;59.32098800;18.06423600;2023-02-19T09:28:24;-0.20;99.90
7598;DHT22;3840;59.32098800;18.06423600;2023-02-19T09:30:50;-0.10;99.90
7598;DHT22;3840;59.32098800;18.06423600;2023-02-19T09:33:15;-0.10;99.90
7598;DHT22;3840;59.32098800;18.06423600;2023-02-19T09:35:41;-0.10;99.90
7598;DHT22;3840;59.32098800;18.06423600;2023-02-19T09:38:07;-0.10;99.90
7598;DHT22;3840;59.32098800;18.06423600;2023-02-19T09:40:36;-0.10;99.90
7598;DHT22;3840;59.32098800;18.06423600;2023-02-19T09:43:06;0.00;99.90
7598;DHT22;3840;59.32098800;18.06423600;2023-02-19T09:45:34;0.00;99.90
7598;DHT22;3840;59.32098800;18.06423600;2023-02-19T09:48:01;0.00;99.90
7598;DHT22;3840;59.32098800;18.06423600;2023-02-19T09:50:37;0.00;99.90
7598;DHT22;3840;59.32098800;18.06423600;2023-02-19T09:53:28;0.10;99.90
7598;DHT22;3840;59.32098800;18.06423600;2023-02-19T09:55:54;0.10;99.90
7598;DHT22;3840;59.32098800;18.06423600;2023-02-19T09:58:33;0.10;99.90
7598;DHT22;3840;59.32098800;18.06423600;2023-02-19T10:01:02;0.10;99.90
7598;DHT22;3840;59.32098800;18.06423600;2023-02-19T10:03:31;0.20;99.90
7598;DHT22;3840;59.32098800;18.06423600;2023-02-19T10:06:04;0.20;99.90
7598;DHT22;3840;59.32098800;18.06423600;2023-02-19T10:08:32;0.20;99.90
7598;DHT22;3840;59.32098800;18.06423600;2023-02-19T10:11:00;0.20;99.90
7598;DHT22;3840;59.32098800;18.06423600;2023-02-19T10:13:52;0.20;99.90
7598;DHT22;3840;59.32098800;18.06423600;2023-02-19T10:16:23;0.30;99.90
7598;DHT22;3840;59.32098800;18.06423600;2023-02-19T10:18:49;0.30;99.90
7598;DHT22;3840;59.32098800;18.06423600;2023-02-19T10:21:21;0.30;99.90
7598;DHT22;3840;59.32098800;18.06423600;2023-02-19T10:23:53;0.30;99.90
7598;DHT22;3840;59.32098800;18.06423600;2023-02-19T10:26:19;0.40;99.90
7598;DHT22;3840;59.32098800;18.06423600;2023-02-19T10:28:46;0.40;99.90
7598;DHT22;3840;59.32098800;18.06423600;2023-02-19T10:31:23;0.40;99.90
7598;DHT22;3840;59.32098800;18.06423600;2023-02-19T10:38:53;0.40;99.90
7598;DHT22;3840;59.32098800;18.06423600;2023-02-19T10:41:21;0.40;99.90
7598;DHT22;3840;59.32098800;18.06423600;2023-02-19T10:44:27;0.40;99.90
7598;DHT22;3840;59.32098800;18.06423600;2023-02-19T10:46:56;0.50;99.90
7598;DHT22;3840;59.32098800;18.06423600;2023-02-19T10:49:30;0.50;99.90
7598;DHT22;3840;59.32098800;18.06423600;2023-02-19T10:52:01;0.50;99.90
7598;DHT22;3840;59.32098800;18.06423600;2023-02-19T10:54:31;0.50;99.90
7598;DHT22;3840;59.32098800;18.06423600;2023-02-19T11:00:05;0.60;99.90
7598;DHT22;3840;59.32098800;18.06423600;2023-02-19T11:02:43;0.60;99.90
7598;DHT22;3840;59.32098800;18.06423600;2023-02-19T11:07:47;0.70;99.90
7598;DHT22;3840;59.32098800;18.06423600;2023-02-19T11:10:39;0.70;99.90
7598;DHT22;3840;59.32098800;18.06423600;2023-02-19T11:13:14;0.70;99.90
7598;DHT22;3840;59.32098800;18.06423600;2023-02-19T11:15:42;0.70;99.90
7598;DHT22;3840;59.32098800;18.06423600;2023-02-19T11:20:49;0.90;99.90
7598;DHT22;3840;59.32098800;18.06423600;2023-02-19T11:23:18;0.80;99.90
7598;DHT22;3840;59.32098800;18.06423600;2023-02-19T11:25:48;0.80;99.90
7598;DHT22;3840;59.32098800;18.06423600;2023-02-19T11:30:50;0.80;99.90
7598;DHT22;3840;59.32098800;18.06423600;2023-02-19T11:35:42;0.90;99.90
7598;DHT22;3840;59.32098800;18.06423600;2023-02-19T11:38:10;0.90;99.90
7598;DHT22;3840;59.32098800;18.06423600;2023-02-19T11:54:00;1.00;99.90
7598;DHT22;3840;59.32098800;18.06423600;2023-02-19T11:56:37;1.00;99.90
7598;DHT22;3840;59.32098800;18.06423600;2023-02-19T12:07:43;1.20;99.90
7598;DHT22;3840;59.32098800;18.06423600;2023-02-19T12:13:07;1.20;99.90
7598;DHT22;3840;59.32098800;18.06423600;2023-02-19T12:18:23;1.30;99.90
7598;DHT22;3840;59.32098800;18.06423600;2023-02-19T12:32:30;1.40;99.90
7598;DHT22;3840;59.32098800;18.06423600;2023-02-19T12:43:17;1.40;99.90
7598;DHT22;3840;59.32098800;18.06423600;2023-02-19T12:50:54;1.60;99.90
7598;DHT22;3840;59.32098800;18.06423600;2023-02-19T12:59:27;1.50;99.90
7598;DHT22;3840;59.32098800;18.06423600;2023-02-19T13:07:13;1.70;99.90
7598;DHT22;3840;59.32098800;18.06423600;2023-02-19T13:09:49;1.70;99.90
7598;DHT22;3840;59.32098800;18.06423600;2023-02-19T13:12:20;1.70;99.90
7598;DHT22;3840;59.32098800;18.06423600;2023-02-19T13:15:20;1.70;99.90
7598;DHT22;3840;59.32098800;18.06423600;2023-02-19T13:17:48;1.70;99.90
7598;DHT22;3840;59.32098800;18.06423600;2023-02-19T13:23:14;1.70;99.90
7598;DHT22;3840;59.32098800;18.06423600;2023-02-19T13:26:18;1.70;99.90
7598;DHT22;3840;59.32098800;18.06423600;2023-02-19T13:32:21;1.70;99.90
7598;DHT22;3840;59.32098800;18.06423600;2023-02-19T13:37:16;1.80;99.90
7598;DHT22;3840;59.32098800;18.06423600;2023-02-19T13:39:51;1.80;99.90
7598;DHT22;3840;59.32098800;18.06423600;2023-02-19T13:42:50;1.80;99.90
7598;DHT22;3840;59.32098800;18.06423600;2023-02-19T13:45:28;1.70;99.90
7598;DHT22;3840;59.32098800;18.06423600;2023-02-19T13:50:30;1.70;99.90
7598;DHT22;3840;59.32098800;18.06423600;2023-02-19T13:52:58;1.70;99.90
7598;DHT22;3840;59.32098800;18.06423600;2023-02-19T13:58:35;1.80;99.90
7598;DHT22;3840;59.32098800;18.06423600;2023-02-19T14:01:07;1.90;99.90
7598;DHT22;3840;59.32098800;18.06423600;2023-02-19T14:03:54;1.70;99.90
7598;DHT22;3840;59.32098800;18.06423600;2023-02-19T14:14:47;1.60;99.90
7598;DHT22;3840;59.32098800;18.06423600;2023-02-19T14:17:27;1.70;99.90
7598;DHT22;3840;59.32098800;18.06423600;2023-02-19T14:25:41;1.70;99.90
7598;DHT22;3840;59.32098800;18.06423600;2023-02-19T14:28:17;1.70;99.90
7598;DHT22;3840;59.32098800;18.06423600;2023-02-19T14:30:54;1.70;99.90
7598;DHT22;3840;59.32098800;18.06423600;2023-02-19T14:33:32;1.60;99.90
7598;DHT22;3840;59.32098800;18.06423600;2023-02-19T14:39:17;1.70;99.90
7598;DHT22;3840;59.32098800;18.06423600;2023-02-19T14:41:48;1.70;99.90
7598;DHT22;3840;59.32098800;18.06423600;2023-02-19T14:44:28;1.70;99.90
7598;DHT22;3840;59.32098800;18.06423600;2023-02-19T14:46:59;1.70;99.90
7598;DHT22;3840;59.32098800;18.06423600;2023-02-19T14:52:17;1.70;99.90
7598;DHT22;3840;59.32098800;18.06423600;2023-02-19T14:55:07;1.60;99.90
7598;DHT22;3840;59.32098800;18.06423600;2023-02-19T14:57:43;1.60;99.90
7598;DHT22;3840;59.32098800;18.06423600;2023-02-19T15:02:49;1.60;99.90
7598;DHT22;3840;59.32098800;18.06423600;2023-02-19T15:05:16;1.60;99.90
7598;DHT22;3840;59.32098800;18.06423600;2023-02-19T15:07:43;1.50;99.90
7598;DHT22;3840;59.32098800;18.06423600;2023-02-19T15:10:11;1.60;99.90
7598;DHT22;3840;59.32098800;18.06423600;2023-02-19T15:12:51;1.50;99.90
7598;DHT22;3840;59.32098800;18.06423600;2023-02-19T15:15:21;1.50;99.90
7598;DHT22;3840;59.32098800;18.06423600;2023-02-19T15:17:50;1.50;99.90
7598;DHT22;3840;59.32098800;18.06423600;2023-02-19T15:20:23;1.40;99.90
7598;DHT22;3840;59.32098800;18.06423600;2023-02-19T15:22:51;1.50;99.90
7598;DHT22;3840;59.32098800;18.06423600;2023-02-19T15:25:20;1.50;99.90
7598;DHT22;3840;59.32098800;18.06423600;2023-02-19T15:27:46;1.50;99.90
7598;DHT22;3840;59.32098800;18.06423600;2023-02-19T15:30:22;1.40;99.90
7598;DHT22;3840;59.32098800;18.06423600;2023-02-19T15:32:56;1.40;99.90
7598;DHT22;3840;59.32098800;18.06423600;2023-02-19T15:35:24;1.40;99.90
7598;DHT22;3840;59.32098800;18.06423600;2023-02-19T15:37:51;1.40;99.90
7598;DHT22;3840;59.32098800;18.06423600;2023-02-19T15:40:21;1.50;99.90
7598;DHT22;3840;59.32098800;18.06423600;2023-02-19T15:42:48;1.30;99.90
7598;DHT22;3840;59.32098800;18.06423600;2023-02-19T15:45:38;1.30;99.90
7598;DHT22;3840;59.32098800;18.06423600;2023-02-19T15:48:17;1.40;99.90
7598;DHT22;3840;59.32098800;18.06423600;2023-02-19T15:50:50;1.30;99.90
7598;DHT22;3840;59.32098800;18.06423600;2023-02-19T15:53:21;1.20;99.90
7598;DHT22;3840;59.32098800;18.06423600;2023-02-19T15:56:11;1.40;99.90
7598;DHT22;3840;59.32098800;18.06423600;2023-02-19T15:58:47;1.20;99.90
7598;DHT22;3840;59.32098800;18.06423600;2023-02-19T16:01:19;1.20;99.90
7598;DHT22;3840;59.32098800;18.06423600;2023-02-19T16:03:46;1.10;99.90
7598;DHT22;3840;59.32098800;18.06423600;2023-02-19T16:06:16;1.20;99.90
7598;DHT22;3840;59.32098800;18.06423600;2023-02-19T16:08:45;1.20;99.90
7598;DHT22;3840;59.32098800;18.06423600;2023-02-19T16:19:49;1.10;99.90
7598;DHT22;3840;59.32098800;18.06423600;2023-02-19T16:22:21;1.00;99.90
7598;DHT22;3840;59.32098800;18.06423600;2023-02-19T16:24:57;1.10;99.90
7598;DHT22;3840;59.32098800;18.06423600;2023-02-19T16:27:32;1.00;99.90
7598;DHT22;3840;59.32098800;18.06423600;2023-02-19T16:30:24;0.90;99.90
7598;DHT22;3840;59.32098800;18.06423600;2023-02-19T16:35:48;0.90;99.90
7598;DHT22;3840;59.32098800;18.06423600;2023-02-19T16:38:17;0.90;99.90